sensor_id;sensor_type;location;lat;lon;timestamp;temperature;humidity
21425;DHT22;10873;51.132;16.848;2022-10-22T00:00:15;25.40;56.00
21425;DHT22;10873;51.132;16.848;2022-10-22T00:03:01;25.40;56.00
21425;DHT22;10873;51.132;16.848;2022-10-22T00:05:27;25.40;55.90
21425;DHT22;10873;51.132;16.848;2022-10-22T00:07:53;25.40;56.00
21425;DHT22;10873;51.132;16.848;2022-10-22T00:10:19;25.40;56.00
21425;DHT22;10873;51.132;16.848;2022-10-22T00:12:45;25.40;56.00
21425;DHT22;10873;51.132;16.848;2022-10-22T00:15:13;25.40;56.00
21425;DHT22;10873;51.132;16.848;2022-10-22T00:17:39;25.40;56.10
21425;DHT22;10873;51.132;16.848;2022-10-22T00:20:06;25.40;56.10
21425;DHT22;10873;51.132;16.848;2022-10-22T00:22:32;25.30;56.00
21425;DHT22;10873;51.132;16.848;2022-10-22T00:24:58;25.30;56.00
21425;DHT22;10873;51.132;16.848;2022-10-22T00:27:24;25.30;56.00
21425;DHT22;10873;51.132;16.848;2022-10-22T00:29:50;25.30;56.00
21425;DHT22;10873;51.132;16.848;2022-10-22T00:32:17;25.30;56.10
21425;DHT22;10873;51.132;16.848;2022-10-22T00:34:43;25.30;56.10
21425;DHT22;10873;51.132;16.848;2022-10-22T00:37:09;25.30;56.80
21425;DHT22;10873;51.132;16.848;2022-10-22T00:39:35;25.30;56.20
21425;DHT22;10873;51.132;16.848;2022-10-22T00:42:02;25.30;56.20
21425;DHT22;10873;51.132;16.848;2022-10-22T00:45:00;25.30;56.20
21425;DHT22;10873;51.132;16.848;2022-10-22T00:47:33;25.30;56.20
21425;DHT22;10873;51.132;16.848;2022-10-22T00:50:01;25.20;56.20
21425;DHT22;10873;51.132;16.848;2022-10-22T00:52:28;25.20;56.30
21425;DHT22;10873;51.132;16.848;2022-10-22T00:54:54;25.20;56.30
21425;DHT22;10873;51.132;16.848;2022-10-22T00:57:22;25.20;56.30
21425;DHT22;10873;51.132;16.848;2022-10-22T00:59:48;25.20;56.30
21425;DHT22;10873;51.132;16.848;2022-10-22T01:02:14;25.20;56.30
21425;DHT22;10873;51.132;16.848;2022-10-22T01:04:42;25.20;56.20
21425;DHT22;10873;51.132;16.848;2022-10-22T01:07:14;25.20;56.30
21425;DHT22;10873;51.132;16.848;2022-10-22T01:09:44;25.20;56.20
21425;DHT22;10873;51.132;16.848;2022-10-22T01:12:15;25.20;56.20
21425;DHT22;10873;51.132;16.848;2022-10-22T01:14:51;25.20;56.20
21425;DHT22;10873;51.132;16.848;2022-10-22T01:17:26;25.20;56.20
21425;DHT22;10873;51.132;16.848;2022-10-22T01:20:05;25.20;56.20
21425;DHT22;10873;51.132;16.848;2022-10-22T01:22:39;25.20;56.20
21425;DHT22;10873;51.132;16.848;2022-10-22T01:25:10;25.30;56.10
21425;DHT22;10873;51.132;16.848;2022-10-22T01:27:54;25.30;56.20
21425;DHT22;10873;51.132;16.848;2022-10-22T01:30:24;25.30;56.10
21425;DHT22;10873;51.132;16.848;2022-10-22T01:32:53;25.20;56.00
21425;DHT22;10873;51.132;16.848;2022-10-22T01:35:24;25.30;56.10
21425;DHT22;10873;51.132;16.848;2022-10-22T01:37:54;25.20;56.10
21425;DHT22;10873;51.132;16.848;2022-10-22T01:40:22;25.20;56.20
21425;DHT22;10873;51.132;16.848;2022-10-22T01:42:59;25.20;56.30
21425;DHT22;10873;51.132;16.848;2022-10-22T01:45:27;25.20;56.90
21425;DHT22;10873;51.132;16.848;2022-10-22T01:47:59;25.20;56.20
21425;DHT22;10873;51.132;16.848;2022-10-22T01:50:52;25.30;56.10
21425;DHT22;10873;51.132;16.848;2022-10-22T01:53:29;25.30;56.00
21425;DHT22;10873;51.132;16.848;2022-10-22T01:56:07;25.40;56.00
21425;DHT22;10873;51.132;16.848;2022-10-22T01:58:41;25.30;55.80
21425;DHT22;10873;51.132;16.848;2022-10-22T02:01:14;25.40;55.90
21425;DHT22;10873;51.132;16.848;2022-10-22T02:03:46;25.40;55.80
21425;DHT22;10873;51.132;16.848;2022-10-22T02:06:16;25.40;55.80
21425;DHT22;10873;51.132;16.848;2022-10-22T02:08:44;25.40;55.70
21425;DHT22;10873;51.132;16.848;2022-10-22T02:11:12;25.40;55.70
21425;DHT22;10873;51.132;16.848;2022-10-22T02:13:41;25.40;55.70
21425;DHT22;10873;51.132;16.848;2022-10-22T02:16:13;25.40;55.70
21425;DHT22;10873;51.132;16.848;2022-10-22T02:18:42;25.40;55.70
21425;DHT22;10873;51.132;16.848;2022-10-22T02:21:09;25.40;55.70
21425;DHT22;10873;51.132;16.848;2022-10-22T02:23:36;25.40;55.70
21425;DHT22;10873;51.132;16.848;2022-10-22T02:26:08;25.40;55.70
21425;DHT22;10873;51.132;16.848;2022-10-22T02:28:40;25.40;55.70
21425;DHT22;10873;51.132;16.848;2022-10-22T02:31:14;25.40;55.70
21425;DHT22;10873;51.132;16.848;2022-10-22T02:33:42;25.40;55.70
21425;DHT22;10873;51.132;16.848;2022-10-22T02:39:20;25.40;55.70
21425;DHT22;10873;51.132;16.848;2022-10-22T02:41:47;25.30;55.50
21425;DHT22;10873;51.132;16.848;2022-10-22T02:44:13;25.30;55.50
21425;DHT22;10873;51.132;16.848;2022-10-22T02:46:41;25.40;55.60
21425;DHT22;10873;51.132;16.848;2022-10-22T02:49:08;25.30;55.50
21425;DHT22;10873;51.132;16.848;2022-10-22T02:51:34;25.30;55.50
21425;DHT22;10873;51.132;16.848;2022-10-22T02:54:01;25.30;55.50
21425;DHT22;10873;51.132;16.848;2022-10-22T02:56:27;25.30;56.10
21425;DHT22;10873;51.132;16.848;2022-10-22T02:58:53;25.30;55.50
21425;DHT22;10873;51.132;16.848;2022-10-22T03:01:19;25.30;55.50
21425;DHT22;10873;51.132;16.848;2022-10-22T03:03:47;25.30;55.50
21425;DHT22;10873;51.132;16.848;2022-10-22T03:06:13;25.30;55.50
21425;DHT22;10873;51.132;16.848;2022-10-22T03:08:39;25.30;55.50
21425;DHT22;10873;51.132;16.848;2022-10-22T03:11:05;25.30;55.50
21425;DHT22;10873;51.132;16.848;2022-10-22T03:13:32;25.30;55.50
21425;DHT22;10873;51.132;16.848;2022-10-22T03:15:58;25.30;55.50
21425;DHT22;10873;51.132;16.848;2022-10-22T03:18:24;25.30;55.50
21425;DHT22;10873;51.132;16.848;2022-10-22T03:21:00;25.20;55.40
21425;DHT22;10873;51.132;16.848;2022-10-22T03:23:27;25.20;55.40
21425;DHT22;10873;51.132;16.848;2022-10-22T03:25:53;25.30;55.50
21425;DHT22;10873;51.132;16.848;2022-10-22T03:28:19;25.20;55.40
21425;DHT22;10873;51.132;16.848;2022-10-22T03:30:45;25.20;55.40
21425;DHT22;10873;51.132;16.848;2022-10-22T03:33:11;25.20;55.40
21425;DHT22;10873;51.132;16.848;2022-10-22T03:35:41;25.20;55.50
21425;DHT22;10873;51.132;16.848;2022-10-22T03:38:11;25.20;55.50
21425;DHT22;10873;51.132;16.848;2022-10-22T03:40:38;25.20;55.50
21425;DHT22;10873;51.132;16.848;2022-10-22T03:43:04;25.20;55.60
21425;DHT22;10873;51.132;16.848;2022-10-22T03:45:31;25.20;55.60
21425;DHT22;10873;51.132;16.848;2022-10-22T03:47:57;25.20;55.60
21425;DHT22;10873;51.132;16.848;2022-10-22T03:50:23;25.20;55.60
21425;DHT22;10873;51.132;16.848;2022-10-22T03:52:49;25.20;55.70
21425;DHT22;10873;51.132;16.848;2022-10-22T03:55:17;25.20;55.70
21425;DHT22;10873;51.132;16.848;2022-10-22T03:57:43;25.20;55.70
21425;DHT22;10873;51.132;16.848;2022-10-22T04:00:10;25.20;55.70
21425;DHT22;10873;51.132;16.848;2022-10-22T04:02:36;25.20;55.70
21425;DHT22;10873;51.132;16.848;2022-10-22T04:05:02;25.20;55.70
21425;DHT22;10873;51.132;16.848;2022-10-22T04:07:29;25.20;55.80
21425;DHT22;10873;51.132;16.848;2022-10-22T04:09:55;25.10;55.80
21425;DHT22;10873;51.132;16.848;2022-10-22T04:12:23;25.10;55.80
21425;DHT22;10873;51.132;16.848;2022-10-22T04:14:49;25.10;55.80
21425;DHT22;10873;51.132;16.848;2022-10-22T04:17:15;25.20;55.90
21425;DHT22;10873;51.132;16.848;2022-10-22T04:19:41;25.20;55.90
21425;DHT22;10873;51.132;16.848;2022-10-22T04:22:08;25.10;55.90
21425;DHT22;10873;51.132;16.848;2022-10-22T04:24:34;25.10;55.90
21425;DHT22;10873;51.132;16.848;2022-10-22T04:27:00;25.10;55.90
21425;DHT22;10873;51.132;16.848;2022-10-22T04:29:27;25.10;55.90
21425;DHT22;10873;51.132;16.848;2022-10-22T04:31:54;25.10;56.00
21425;DHT22;10873;51.132;16.848;2022-10-22T04:34:20;25.10;56.00
21425;DHT22;10873;51.132;16.848;2022-10-22T04:36:46;25.10;56.00
21425;DHT22;10873;51.132;16.848;2022-10-22T04:39:13;25.10;56.00
21425;DHT22;10873;51.132;16.848;2022-10-22T04:41:39;25.10;56.00
21425;DHT22;10873;51.132;16.848;2022-10-22T04:44:06;25.10;56.00
21425;DHT22;10873;51.132;16.848;2022-10-22T04:46:34;25.10;56.00
21425;DHT22;10873;51.132;16.848;2022-10-22T04:49:00;25.10;56.00
21425;DHT22;10873;51.132;16.848;2022-10-22T04:51:29;25.10;56.00
21425;DHT22;10873;51.132;16.848;2022-10-22T04:53:55;25.10;56.10
21425;DHT22;10873;51.132;16.848;2022-10-22T04:56:24;25.10;56.10
21425;DHT22;10873;51.132;16.848;2022-10-22T04:58:51;25.10;56.10
21425;DHT22;10873;51.132;16.848;2022-10-22T05:01:20;25.00;56.10
21425;DHT22;10873;51.132;16.848;2022-10-22T05:03:48;25.10;56.20
21425;DHT22;10873;51.132;16.848;2022-10-22T05:06:16;25.00;56.10
21425;DHT22;10873;51.132;16.848;2022-10-22T05:08:42;25.00;56.20
21425;DHT22;10873;51.132;16.848;2022-10-22T05:11:12;25.00;56.20
21425;DHT22;10873;51.132;16.848;2022-10-22T05:13:39;25.00;56.40
21425;DHT22;10873;51.132;16.848;2022-10-22T05:16:05;25.00;56.50
21425;DHT22;10873;51.132;16.848;2022-10-22T05:18:33;25.00;56.90
21425;DHT22;10873;51.132;16.848;2022-10-22T05:21:02;24.90;56.80
21425;DHT22;10873;51.132;16.848;2022-10-22T05:23:28;24.90;56.80
21425;DHT22;10873;51.132;16.848;2022-10-22T05:25:54;24.90;56.70
21425;DHT22;10873;51.132;16.848;2022-10-22T05:28:20;24.90;57.00
21425;DHT22;10873;51.132;16.848;2022-10-22T05:30:52;24.80;56.50
21425;DHT22;10873;51.132;16.848;2022-10-22T05:33:18;24.80;56.50
21425;DHT22;10873;51.132;16.848;2022-10-22T05:35:45;24.80;56.50
21425;DHT22;10873;51.132;16.848;2022-10-22T05:38:12;24.80;56.60
21425;DHT22;10873;51.132;16.848;2022-10-22T05:40:38;24.80;56.70
21425;DHT22;10873;51.132;16.848;2022-10-22T05:43:04;24.90;56.70
21425;DHT22;10873;51.132;16.848;2022-10-22T05:45:30;24.80;56.70
21425;DHT22;10873;51.132;16.848;2022-10-22T05:48:00;24.90;56.70
21425;DHT22;10873;51.132;16.848;2022-10-22T05:50:26;24.90;56.80
21425;DHT22;10873;51.132;16.848;2022-10-22T05:52:52;25.00;56.80
21425;DHT22;10873;51.132;16.848;2022-10-22T05:55:20;25.00;56.90
21425;DHT22;10873;51.132;16.848;2022-10-22T05:57:46;25.00;57.00
21425;DHT22;10873;51.132;16.848;2022-10-22T06:00:15;25.00;57.00
21425;DHT22;10873;51.132;16.848;2022-10-22T06:02:42;24.90;57.10
21425;DHT22;10873;51.132;16.848;2022-10-22T06:05:08;24.90;57.20
21425;DHT22;10873;51.132;16.848;2022-10-22T06:07:35;24.90;57.30
21425;DHT22;10873;51.132;16.848;2022-10-22T06:10:01;24.90;57.30
21425;DHT22;10873;51.132;16.848;2022-10-22T06:12:28;24.90;57.40
21425;DHT22;10873;51.132;16.848;2022-10-22T06:14:55;24.80;57.40
21425;DHT22;10873;51.132;16.848;2022-10-22T06:17:21;24.90;57.50
21425;DHT22;10873;51.132;16.848;2022-10-22T06:19:47;24.80;57.60
21425;DHT22;10873;51.132;16.848;2022-10-22T06:22:13;24.80;57.70
21425;DHT22;10873;51.132;16.848;2022-10-22T06:24:39;24.80;57.80
21425;DHT22;10873;51.132;16.848;2022-10-22T06:27:05;24.80;57.90
21425;DHT22;10873;51.132;16.848;2022-10-22T06:29:33;24.80;57.90
21425;DHT22;10873;51.132;16.848;2022-10-22T06:31:59;24.80;58.00
21425;DHT22;10873;51.132;16.848;2022-10-22T06:34:25;24.80;58.00
21425;DHT22;10873;51.132;16.848;2022-10-22T06:36:51;24.80;58.00
21425;DHT22;10873;51.132;16.848;2022-10-22T06:39:18;24.80;58.10
21425;DHT22;10873;51.132;16.848;2022-10-22T06:41:44;24.80;58.20
21425;DHT22;10873;51.132;16.848;2022-10-22T06:44:12;24.80;59.30
21425;DHT22;10873;51.132;16.848;2022-10-22T06:46:40;24.70;59.80
21425;DHT22;10873;51.132;16.848;2022-10-22T06:49:11;24.70;60.00
21425;DHT22;10873;51.132;16.848;2022-10-22T06:51:37;24.70;60.20
21425;DHT22;10873;51.132;16.848;2022-10-22T06:54:04;24.60;60.20
21425;DHT22;10873;51.132;16.848;2022-10-22T06:56:30;24.60;60.30
21425;DHT22;10873;51.132;16.848;2022-10-22T06:58:57;24.60;60.40
21425;DHT22;10873;51.132;16.848;2022-10-22T07:01:28;24.60;60.50
21425;DHT22;10873;51.132;16.848;2022-10-22T07:03:57;24.60;60.30
21425;DHT22;10873;51.132;16.848;2022-10-22T07:06:24;24.50;60.60
21425;DHT22;10873;51.132;16.848;2022-10-22T07:08:51;24.60;60.40
21425;DHT22;10873;51.132;16.848;2022-10-22T07:11:19;24.60;60.30
21425;DHT22;10873;51.132;16.848;2022-10-22T07:13:46;24.60;60.20
21425;DHT22;10873;51.132;16.848;2022-10-22T07:16:13;24.50;60.10
21425;DHT22;10873;51.132;16.848;2022-10-22T07:18:41;24.60;60.00
21425;DHT22;10873;51.132;16.848;2022-10-22T07:21:10;24.60;59.90
21425;DHT22;10873;51.132;16.848;2022-10-22T07:23:37;24.70;59.80
21425;DHT22;10873;51.132;16.848;2022-10-22T07:26:04;24.70;59.70
21425;DHT22;10873;51.132;16.848;2022-10-22T07:28:33;24.80;59.70
21425;DHT22;10873;51.132;16.848;2022-10-22T07:30:59;24.80;59.60
21425;DHT22;10873;51.132;16.848;2022-10-22T07:33:26;24.80;59.50
21425;DHT22;10873;51.132;16.848;2022-10-22T07:35:56;24.80;59.50
21425;DHT22;10873;51.132;16.848;2022-10-22T07:38:24;24.80;59.50
21425;DHT22;10873;51.132;16.848;2022-10-22T07:40:50;24.80;59.40
21425;DHT22;10873;51.132;16.848;2022-10-22T07:43:16;24.80;59.40
21425;DHT22;10873;51.132;16.848;2022-10-22T07:45:42;24.80;59.40
21425;DHT22;10873;51.132;16.848;2022-10-22T07:48:09;24.80;59.40
21425;DHT22;10873;51.132;16.848;2022-10-22T07:50:35;24.80;59.40
21425;DHT22;10873;51.132;16.848;2022-10-22T07:53:01;24.80;59.40
21425;DHT22;10873;51.132;16.848;2022-10-22T07:55:28;24.80;59.50
21425;DHT22;10873;51.132;16.848;2022-10-22T07:57:54;24.80;59.50
21425;DHT22;10873;51.132;16.848;2022-10-22T08:00:21;24.80;59.50
21425;DHT22;10873;51.132;16.848;2022-10-22T08:02:47;24.80;59.50
21425;DHT22;10873;51.132;16.848;2022-10-22T08:05:13;24.70;59.50
21425;DHT22;10873;51.132;16.848;2022-10-22T08:07:39;24.70;59.50
21425;DHT22;10873;51.132;16.848;2022-10-22T08:10:07;24.70;59.60
21425;DHT22;10873;51.132;16.848;2022-10-22T08:12:35;24.70;59.70
21425;DHT22;10873;51.132;16.848;2022-10-22T08:15:01;24.70;59.70
21425;DHT22;10873;51.132;16.848;2022-10-22T08:17:27;24.70;59.80
21425;DHT22;10873;51.132;16.848;2022-10-22T08:19:53;24.70;59.90
21425;DHT22;10873;51.132;16.848;2022-10-22T08:22:20;24.70;60.00
21425;DHT22;10873;51.132;16.848;2022-10-22T08:24:46;24.70;60.00
21425;DHT22;10873;51.132;16.848;2022-10-22T08:27:12;24.70;60.10
21425;DHT22;10873;51.132;16.848;2022-10-22T08:29:39;24.70;60.10
21425;DHT22;10873;51.132;16.848;2022-10-22T08:32:06;24.70;60.20
21425;DHT22;10873;51.132;16.848;2022-10-22T08:34:32;24.60;60.20
21425;DHT22;10873;51.132;16.848;2022-10-22T08:36:58;24.70;60.40
21425;DHT22;10873;51.132;16.848;2022-10-22T08:39:24;24.60;60.40
21425;DHT22;10873;51.132;16.848;2022-10-22T08:42:00;24.60;60.50
21425;DHT22;10873;51.132;16.848;2022-10-22T08:44:50;24.70;60.70
21425;DHT22;10873;51.132;16.848;2022-10-22T08:47:39;24.70;60.70
21425;DHT22;10873;51.132;16.848;2022-10-22T08:50:09;24.60;60.80
21425;DHT22;10873;51.132;16.848;2022-10-22T08:52:38;24.60;60.90
21425;DHT22;10873;51.132;16.848;2022-10-22T08:55:11;24.60;61.00
21425;DHT22;10873;51.132;16.848;2022-10-22T08:57:45;24.70;61.10
21425;DHT22;10873;51.132;16.848;2022-10-22T09:00:19;24.60;61.10
21425;DHT22;10873;51.132;16.848;2022-10-22T09:02:56;24.60;61.20
21425;DHT22;10873;51.132;16.848;2022-10-22T09:05:32;24.60;61.30
21425;DHT22;10873;51.132;16.848;2022-10-22T09:08:02;24.60;61.30
21425;DHT22;10873;51.132;16.848;2022-10-22T09:10:33;24.70;61.50
21425;DHT22;10873;51.132;16.848;2022-10-22T09:13:00;24.60;61.50
21425;DHT22;10873;51.132;16.848;2022-10-22T09:15:28;24.60;61.50
21425;DHT22;10873;51.132;16.848;2022-10-22T09:18:05;24.60;61.80
21425;DHT22;10873;51.132;16.848;2022-10-22T09:20:40;24.70;62.40
21425;DHT22;10873;51.132;16.848;2022-10-22T09:23:22;24.60;63.20
21425;DHT22;10873;51.132;16.848;2022-10-22T09:25:51;24.60;64.00
21425;DHT22;10873;51.132;16.848;2022-10-22T09:28:18;24.50;64.10
21425;DHT22;10873;51.132;16.848;2022-10-22T09:30:45;24.50;63.90
21425;DHT22;10873;51.132;16.848;2022-10-22T09:33:14;24.50;63.70
21425;DHT22;10873;51.132;16.848;2022-10-22T09:35:45;24.50;63.60
21425;DHT22;10873;51.132;16.848;2022-10-22T09:38:14;24.60;63.40
21425;DHT22;10873;51.132;16.848;2022-10-22T09:40:45;24.60;63.20
21425;DHT22;10873;51.132;16.848;2022-10-22T09:43:12;24.60;63.10
21425;DHT22;10873;51.132;16.848;2022-10-22T09:45:40;24.60;62.90
21425;DHT22;10873;51.132;16.848;2022-10-22T09:48:18;24.70;62.90
21425;DHT22;10873;51.132;16.848;2022-10-22T09:50:46;24.70;62.70
21425;DHT22;10873;51.132;16.848;2022-10-22T09:53:18;24.70;62.70
21425;DHT22;10873;51.132;16.848;2022-10-22T09:55:49;24.80;62.60
21425;DHT22;10873;51.132;16.848;2022-10-22T09:58:17;24.80;62.60
21425;DHT22;10873;51.132;16.848;2022-10-22T10:00:46;24.80;62.50
21425;DHT22;10873;51.132;16.848;2022-10-22T10:03:17;24.90;62.40
21425;DHT22;10873;51.132;16.848;2022-10-22T10:05:45;24.90;62.30
21425;DHT22;10873;51.132;16.848;2022-10-22T10:08:14;25.00;62.30
21425;DHT22;10873;51.132;16.848;2022-10-22T10:10:44;25.00;62.10
21425;DHT22;10873;51.132;16.848;2022-10-22T10:13:28;25.00;62.10
21425;DHT22;10873;51.132;16.848;2022-10-22T10:15:59;25.00;62.00
21425;DHT22;10873;51.132;16.848;2022-10-22T10:18:46;25.10;62.10
21425;DHT22;10873;51.132;16.848;2022-10-22T10:21:21;25.10;62.10
21425;DHT22;10873;51.132;16.848;2022-10-22T10:23:56;25.10;62.10
21425;DHT22;10873;51.132;16.848;2022-10-22T10:26:32;25.10;62.00
21425;DHT22;10873;51.132;16.848;2022-10-22T10:29:12;25.00;62.00
21425;DHT22;10873;51.132;16.848;2022-10-22T10:31:48;25.10;62.00
21425;DHT22;10873;51.132;16.848;2022-10-22T10:34:30;25.10;62.10
21425;DHT22;10873;51.132;16.848;2022-10-22T10:37:03;25.10;62.10
21425;DHT22;10873;51.132;16.848;2022-10-22T10:39:38;25.10;62.10
21425;DHT22;10873;51.132;16.848;2022-10-22T10:42:12;25.10;62.20
21425;DHT22;10873;51.132;16.848;2022-10-22T10:44:58;25.00;62.30
21425;DHT22;10873;51.132;16.848;2022-10-22T10:47:41;25.10;62.40
21425;DHT22;10873;51.132;16.848;2022-10-22T10:50:17;25.00;62.50
21425;DHT22;10873;51.132;16.848;2022-10-22T10:52:49;25.00;62.60
21425;DHT22;10873;51.132;16.848;2022-10-22T10:55:24;25.00;62.80
21425;DHT22;10873;51.132;16.848;2022-10-22T10:57:59;25.00;62.90
21425;DHT22;10873;51.132;16.848;2022-10-22T11:00:32;25.00;62.90
21425;DHT22;10873;51.132;16.848;2022-10-22T11:03:25;25.00;62.90
21425;DHT22;10873;51.132;16.848;2022-10-22T11:05:59;25.00;63.00
21425;DHT22;10873;51.132;16.848;2022-10-22T11:08:29;25.00;63.00
21425;DHT22;10873;51.132;16.848;2022-10-22T11:11:00;25.00;62.90
21425;DHT22;10873;51.132;16.848;2022-10-22T11:13:32;25.00;63.00
21425;DHT22;10873;51.132;16.848;2022-10-22T11:16:03;25.00;63.00
21425;DHT22;10873;51.132;16.848;2022-10-22T11:18:34;25.00;63.90
21425;DHT22;10873;51.132;16.848;2022-10-22T11:21:16;25.00;64.80
21425;DHT22;10873;51.132;16.848;2022-10-22T11:23:47;24.90;64.80
21425;DHT22;10873;51.132;16.848;2022-10-22T11:26:26;24.90;64.80
21425;DHT22;10873;51.132;16.848;2022-10-22T11:28:54;24.90;64.90
21425;DHT22;10873;51.132;16.848;2022-10-22T11:31:24;24.80;65.10
21425;DHT22;10873;51.132;16.848;2022-10-22T11:33:52;24.80;65.20
21425;DHT22;10873;51.132;16.848;2022-10-22T11:36:22;24.80;65.40
21425;DHT22;10873;51.132;16.848;2022-10-22T11:38:50;24.80;65.50
21425;DHT22;10873;51.132;16.848;2022-10-22T11:41:18;24.70;65.50
21425;DHT22;10873;51.132;16.848;2022-10-22T11:43:55;24.70;65.60
21425;DHT22;10873;51.132;16.848;2022-10-22T11:46:39;24.70;65.80
21425;DHT22;10873;51.132;16.848;2022-10-22T11:49:17;24.70;65.90
21425;DHT22;10873;51.132;16.848;2022-10-22T11:51:45;24.60;66.00
21425;DHT22;10873;51.132;16.848;2022-10-22T11:54:29;24.60;66.00
21425;DHT22;10873;51.132;16.848;2022-10-22T11:57:11;24.60;66.00
21425;DHT22;10873;51.132;16.848;2022-10-22T11:59:47;24.60;66.00
21425;DHT22;10873;51.132;16.848;2022-10-22T12:02:41;24.60;66.10
21425;DHT22;10873;51.132;16.848;2022-10-22T12:05:34;24.60;66.30
21425;DHT22;10873;51.132;16.848;2022-10-22T12:08:24;24.60;66.20
21425;DHT22;10873;51.132;16.848;2022-10-22T12:11:00;24.50;66.20
21425;DHT22;10873;51.132;16.848;2022-10-22T12:13:30;24.50;66.30
21425;DHT22;10873;51.132;16.848;2022-10-22T12:16:00;24.50;66.30
21425;DHT22;10873;51.132;16.848;2022-10-22T12:18:32;24.50;66.40
21425;DHT22;10873;51.132;16.848;2022-10-22T12:20:59;24.50;66.50
21425;DHT22;10873;51.132;16.848;2022-10-22T12:23:30;24.50;66.60
21425;DHT22;10873;51.132;16.848;2022-10-22T12:25:56;24.50;66.70
21425;DHT22;10873;51.132;16.848;2022-10-22T12:28:23;24.50;66.80
21425;DHT22;10873;51.132;16.848;2022-10-22T12:30:49;24.50;66.30
21425;DHT22;10873;51.132;16.848;2022-10-22T12:33:19;24.40;66.40
21425;DHT22;10873;51.132;16.848;2022-10-22T12:35:46;24.40;66.60
21425;DHT22;10873;51.132;16.848;2022-10-22T12:38:15;24.50;66.80
21425;DHT22;10873;51.132;16.848;2022-10-22T12:40:44;24.50;66.80
21425;DHT22;10873;51.132;16.848;2022-10-22T12:43:12;24.50;66.80
21425;DHT22;10873;51.132;16.848;2022-10-22T12:45:39;24.50;66.80
21425;DHT22;10873;51.132;16.848;2022-10-22T12:48:24;24.60;66.70
21425;DHT22;10873;51.132;16.848;2022-10-22T12:50:53;24.60;66.70
21425;DHT22;10873;51.132;16.848;2022-10-22T12:53:23;24.60;66.70
21425;DHT22;10873;51.132;16.848;2022-10-22T12:55:53;24.70;66.70
21425;DHT22;10873;51.132;16.848;2022-10-22T12:58:25;24.60;66.70
21425;DHT22;10873;51.132;16.848;2022-10-22T13:00:54;24.70;66.70
21425;DHT22;10873;51.132;16.848;2022-10-22T13:03:28;24.70;66.70
21425;DHT22;10873;51.132;16.848;2022-10-22T13:05:54;24.60;66.60
21425;DHT22;10873;51.132;16.848;2022-10-22T13:08:22;24.60;66.70
21425;DHT22;10873;51.132;16.848;2022-10-22T13:10:54;24.60;66.80
21425;DHT22;10873;51.132;16.848;2022-10-22T13:13:31;24.50;66.90
21425;DHT22;10873;51.132;16.848;2022-10-22T13:16:12;24.60;67.00
21425;DHT22;10873;51.132;16.848;2022-10-22T13:18:38;24.60;67.00
21425;DHT22;10873;51.132;16.848;2022-10-22T13:21:04;24.60;67.80
21425;DHT22;10873;51.132;16.848;2022-10-22T13:23:32;24.70;67.20
21425;DHT22;10873;51.132;16.848;2022-10-22T13:26:02;24.70;67.30
21425;DHT22;10873;51.132;16.848;2022-10-22T13:28:29;24.70;67.40
21425;DHT22;10873;51.132;16.848;2022-10-22T13:30:58;24.70;67.50
21425;DHT22;10873;51.132;16.848;2022-10-22T13:33:28;24.70;67.50
21425;DHT22;10873;51.132;16.848;2022-10-22T13:35:55;24.70;67.60
21425;DHT22;10873;51.132;16.848;2022-10-22T13:38:23;24.70;67.70
21425;DHT22;10873;51.132;16.848;2022-10-22T13:40:49;24.70;67.70
21425;DHT22;10873;51.132;16.848;2022-10-22T13:43:18;24.70;67.70
21425;DHT22;10873;51.132;16.848;2022-10-22T13:45:44;24.70;67.60
21425;DHT22;10873;51.132;16.848;2022-10-22T13:48:13;24.60;67.50
21425;DHT22;10873;51.132;16.848;2022-10-22T13:50:40;24.60;67.60
21425;DHT22;10873;51.132;16.848;2022-10-22T13:53:09;24.60;68.30
21425;DHT22;10873;51.132;16.848;2022-10-22T13:55:43;24.60;67.60
21425;DHT22;10873;51.132;16.848;2022-10-22T13:58:11;24.60;67.70
21425;DHT22;10873;51.132;16.848;2022-10-22T14:00:41;24.60;67.70
21425;DHT22;10873;51.132;16.848;2022-10-22T14:03:09;24.60;68.50
21425;DHT22;10873;51.132;16.848;2022-10-22T14:05:36;24.60;67.80
21425;DHT22;10873;51.132;16.848;2022-10-22T14:08:02;24.60;67.80
21425;DHT22;10873;51.132;16.848;2022-10-22T14:10:28;24.60;68.00
21425;DHT22;10873;51.132;16.848;2022-10-22T14:12:54;24.60;68.00
21425;DHT22;10873;51.132;16.848;2022-10-22T14:15:22;24.50;68.10
21425;DHT22;10873;51.132;16.848;2022-10-22T14:17:52;24.50;68.10
21425;DHT22;10873;51.132;16.848;2022-10-22T14:20:20;24.50;68.00
21425;DHT22;10873;51.132;16.848;2022-10-22T14:22:48;24.50;67.80
21425;DHT22;10873;51.132;16.848;2022-10-22T14:25:16;24.50;67.70
21425;DHT22;10873;51.132;16.848;2022-10-22T14:27:43;24.50;67.80
21425;DHT22;10873;51.132;16.848;2022-10-22T14:30:13;24.40;67.60
21425;DHT22;10873;51.132;16.848;2022-10-22T14:32:40;24.50;67.80
21425;DHT22;10873;51.132;16.848;2022-10-22T14:35:10;24.40;67.70
21425;DHT22;10873;51.132;16.848;2022-10-22T14:37:37;24.50;67.80
21425;DHT22;10873;51.132;16.848;2022-10-22T14:40:03;24.50;67.80
21425;DHT22;10873;51.132;16.848;2022-10-22T14:42:39;24.50;67.80
21425;DHT22;10873;51.132;16.848;2022-10-22T14:45:09;24.50;67.80
21425;DHT22;10873;51.132;16.848;2022-10-22T14:47:37;24.50;67.70
21425;DHT22;10873;51.132;16.848;2022-10-22T14:50:04;24.40;67.60
21425;DHT22;10873;51.132;16.848;2022-10-22T14:52:34;24.40;67.60
21425;DHT22;10873;51.132;16.848;2022-10-22T14:55:00;24.40;67.80
21425;DHT22;10873;51.132;16.848;2022-10-22T14:57:26;24.40;67.80
21425;DHT22;10873;51.132;16.848;2022-10-22T14:59:52;24.40;67.90
21425;DHT22;10873;51.132;16.848;2022-10-22T15:02:20;24.40;67.80
21425;DHT22;10873;51.132;16.848;2022-10-22T15:04:46;24.40;67.80
21425;DHT22;10873;51.132;16.848;2022-10-22T15:07:12;24.40;67.80
21425;DHT22;10873;51.132;16.848;2022-10-22T15:09:40;24.30;67.80
21425;DHT22;10873;51.132;16.848;2022-10-22T15:12:06;24.30;67.90
21425;DHT22;10873;51.132;16.848;2022-10-22T15:14:32;24.30;67.90
21425;DHT22;10873;51.132;16.848;2022-10-22T15:16:59;24.30;67.90
21425;DHT22;10873;51.132;16.848;2022-10-22T15:19:25;24.30;68.70
21425;DHT22;10873;51.132;16.848;2022-10-22T15:21:51;24.30;68.00
21425;DHT22;10873;51.132;16.848;2022-10-22T15:24:17;24.30;67.90
21425;DHT22;10873;51.132;16.848;2022-10-22T15:26:45;24.30;67.90
21425;DHT22;10873;51.132;16.848;2022-10-22T15:29:11;24.30;68.40
21425;DHT22;10873;51.132;16.848;2022-10-22T15:31:46;24.40;68.40